Time;durP1;ratioP1;P1;durP2;ratioP2;P2;SDS_P1;SDS_P2;PMS_P1;PMS_P2;Temp;Humidity;BMP_temperature;BMP_pressure;BME280_temperature;BME280_humidity;BME280_pressure;Samples;Min_cycle;Max_cycle;Signal;HPM_P1;HPM_P2
2021/10/22 00:00:16;;;;;;;3.13;2.60;;;8.50;99.90;;;;;;5087745;28;20678;-93
2021/10/22 00:02:44;;;;;;;3.10;2.90;;;8.50;99.90;;;;;;5092481;28;20646;-93
2021/10/22 00:05:25;;;;;;;3.40;3.10;;;8.50;99.90;;;;;;5091031;28;20663;-91
2021/10/22 00:08:12;;;;;;;3.17;2.87;;;8.40;99.90;;;;;;5083450;28;20621;-92
2021/10/22 00:10:45;;;;;;;2.60;2.40;;;8.30;99.90;;;;;;5097042;28;20655;-92
2021/10/22 00:13:23;;;;;;;3.53;3.23;;;8.40;99.90;;;;;;5092294;28;20739;-94
2021/10/22 00:16:05;;;;;;;3.10;2.90;;;8.30;99.90;;;;;;5093694;28;20620;-92
2021/10/22 00:18:48;;;;;;;5.40;2.90;;;8.20;99.90;;;;;;5088162;28;20632;-93
2021/10/22 00:24:05;;;;;;;3.80;3.13;;;8.10;99.90;;;;;;5092773;28;20715;-92
2021/10/22 00:26:37;;;;;;;2.90;2.70;;;7.90;99.90;;;;;;5088461;28;20628;-93
2021/10/22 00:29:16;;;;;;;5.00;3.27;;;7.90;99.90;;;;;;5093036;28;20632;-93
2021/10/22 00:31:51;;;;;;;3.23;2.40;;;7.80;99.90;;;;;;5088115;28;20635;-91
2021/10/22 00:34:35;;;;;;;4.33;2.83;;;7.80;99.90;;;;;;5084777;28;20627;-92
2021/10/22 00:37:07;;;;;;;3.33;2.00;;;7.80;99.90;;;;;;5090499;28;20707;-92
2021/10/22 00:39:34;;;;;;;4.33;2.27;;;7.70;99.90;;;;;;5083369;28;20674;-92
2021/10/22 00:42:03;;;;;;;2.60;2.20;;;7.70;99.90;;;;;;5085774;28;20675;-92
2021/10/22 00:44:31;;;;;;;2.20;2.00;;;7.70;99.90;;;;;;5083788;28;20709;-93
2021/10/22 00:47:00;;;;;;;2.60;2.40;;;7.70;99.90;;;;;;5078123;28;20675;-92
2021/10/22 00:49:27;;;;;;;2.57;2.37;;;7.70;99.90;;;;;;5086018;28;20635;-93
2021/10/22 00:51:54;;;;;;;2.80;2.03;;;7.70;99.90;;;;;;5080800;28;20636;-92
2021/10/22 00:54:21;;;;;;;3.37;2.20;;;7.80;99.90;;;;;;5085184;28;20626;-90
2021/10/22 00:56:49;;;;;;;3.70;2.30;;;7.80;99.90;;;;;;5083949;28;20625;-96
2021/10/22 00:59:16;;;;;;;3.90;2.70;;;7.90;99.90;;;;;;5084645;28;20651;-94
2021/10/22 01:01:50;;;;;;;3.23;2.93;;;7.90;99.90;;;;;;5090347;28;20985;-94
2021/10/22 01:04:18;;;;;;;4.57;2.20;;;8.00;99.90;;;;;;5082071;28;21174;-94
2021/10/22 01:06:50;;;;;;;3.07;1.90;;;8.00;99.90;;;;;;5080790;28;20632;-93
2021/10/22 01:09:17;;;;;;;3.97;1.93;;;8.00;99.90;;;;;;5085178;28;20648;-92
2021/10/22 01:11:46;;;;;;;2.47;2.10;;;8.00;99.90;;;;;;5089286;28;20631;-93
2021/10/22 01:14:12;;;;;;;3.33;1.70;;;8.10;99.90;;;;;;5085224;28;20628;-92
2021/10/22 01:16:45;;;;;;;2.97;2.20;;;8.10;99.90;;;;;;5076108;28;20605;-93
2021/10/22 01:19:14;;;;;;;5.47;2.50;;;8.10;99.90;;;;;;5080655;28;20633;-92
2021/10/22 01:21:46;;;;;;;2.73;2.43;;;8.10;99.90;;;;;;5086683;28;20704;-92
2021/10/22 01:24:13;;;;;;;3.23;1.80;;;8.20;99.90;;;;;;5083945;28;20658;-93
2021/10/22 01:26:41;;;;;;;2.13;1.77;;;8.20;99.90;;;;;;5082988;28;21222;-93
2021/10/22 01:29:08;;;;;;;4.80;2.23;;;8.30;99.90;;;;;;5083244;28;20665;-94
2021/10/22 01:31:37;;;;;;;2.73;2.20;;;8.40;99.90;;;;;;5091075;28;20704;-94
2021/10/22 01:34:04;;;;;;;3.03;2.50;;;8.50;99.90;;;;;;5046723;28;20630;-94
2021/10/22 01:36:33;;;;;;;6.07;2.50;;;8.50;99.90;;;;;;5080620;28;20634;-94
2021/10/22 01:39:02;;;;;;;2.90;2.20;;;8.40;99.90;;;;;;5084529;28;20633;-95
2021/10/22 01:41:31;;;;;;;2.63;1.87;;;8.40;99.90;;;;;;5090378;28;20628;-94
2021/10/22 01:44:01;;;;;;;2.90;1.70;;;8.50;99.90;;;;;;5083547;28;21223;-93
2021/10/22 01:46:29;;;;;;;3.07;2.33;;;8.50;99.90;;;;;;5085771;28;20780;-93
2021/10/22 01:48:57;;;;;;;3.73;2.50;;;8.30;99.90;;;;;;5087310;28;20806;-93
2021/10/22 01:51:28;;;;;;;3.50;2.00;;;8.30;99.90;;;;;;5087969;28;20624;-93
2021/10/22 01:53:56;;;;;;;3.03;2.27;;;8.30;99.90;;;;;;5073008;28;20682;-94
2021/10/22 01:56:26;;;;;;;4.60;2.37;;;8.30;99.90;;;;;;5066173;28;20651;-92
2021/10/22 01:58:53;;;;;;;6.97;2.67;;;8.20;99.90;;;;;;5087834;28;21005;-91
2021/10/22 02:01:20;;;;;;;4.97;2.30;;;8.20;99.90;;;;;;5088881;28;20629;-92
2021/10/22 02:03:47;;;;;;;3.90;2.00;;;8.10;99.90;;;;;;5075421;28;20641;-91
2021/10/22 02:06:14;;;;;;;4.60;2.47;;;8.10;99.90;;;;;;5083506;28;20666;-90
2021/10/22 02:08:41;;;;;;;12.17;2.50;;;8.20;99.90;;;;;;5082885;28;20605;-90
2021/10/22 02:11:09;;;;;;;6.50;2.33;;;8.10;99.90;;;;;;5080665;28;20637;-92
2021/10/22 02:13:37;;;;;;;4.67;2.03;;;8.10;99.90;;;;;;5066521;28;20623;-92
2021/10/22 02:16:05;;;;;;;5.80;2.50;;;8.10;99.90;;;;;;5087501;28;20604;-92
2021/10/22 02:18:32;;;;;;;8.40;2.50;;;8.10;99.90;;;;;;5096971;28;20632;-93
2021/10/22 02:20:59;;;;;;;2.80;2.00;;;8.20;99.90;;;;;;5092360;28;20756;-92
2021/10/22 02:23:26;;;;;;;6.07;1.70;;;8.10;99.90;;;;;;5096582;28;20624;-93
2021/10/22 02:25:53;;;;;;;4.97;2.07;;;8.00;99.90;;;;;;5069890;28;20641;-92
2021/10/22 02:28:20;;;;;;;7.00;2.30;;;8.00;99.90;;;;;;5088095;28;20639;-92
2021/10/22 02:30:54;;;;;;;5.60;2.00;;;8.00;99.90;;;;;;5076415;28;20661;-92
2021/10/22 02:33:21;;;;;;;5.70;2.47;;;8.00;99.90;;;;;;5066382;28;20629;-92
2021/10/22 02:35:49;;;;;;;6.30;2.60;;;7.90;99.90;;;;;;5083464;28;21004;-92
2021/10/22 02:38:16;;;;;;;4.90;2.33;;;7.80;99.90;;;;;;5060781;28;20688;-91
2021/10/22 02:40:44;;;;;;;7.10;2.03;;;7.70;99.90;;;;;;5068177;28;20695;-91
2021/10/22 02:43:12;;;;;;;4.20;2.13;;;7.70;99.90;;;;;;5084440;28;20717;-91
2021/10/22 02:45:39;;;;;;;6.90;2.90;;;7.60;99.90;;;;;;5081654;28;21297;-93
2021/10/22 02:48:08;;;;;;;4.73;2.47;;;7.60;99.90;;;;;;5085879;28;20639;-92
2021/10/22 02:50:36;;;;;;;5.30;2.50;;;7.50;99.90;;;;;;5080656;28;20644;-91
2021/10/22 02:53:03;;;;;;;4.43;1.87;;;7.50;99.90;;;;;;5065962;28;20632;-91
2021/10/22 02:55:31;;;;;;;3.93;2.10;;;7.40;99.90;;;;;;5065016;28;20622;-90
2021/10/22 02:57:58;;;;;;;11.03;3.00;;;7.30;99.90;;;;;;5077772;28;20946;-92
2021/10/22 03:00:25;;;;;;;5.90;2.33;;;7.30;99.90;;;;;;5082157;28;21029;-91
2021/10/22 03:02:52;;;;;;;6.80;2.77;;;7.40;99.90;;;;;;5083423;28;20639;-91
2021/10/22 03:05:20;;;;;;;5.47;2.60;;;7.30;99.90;;;;;;5081294;28;20769;-92
2021/10/22 03:07:47;;;;;;;10.53;2.60;;;7.30;99.90;;;;;;5080438;28;20663;-93
2021/10/22 03:10:14;;;;;;;3.80;2.37;;;7.30;99.90;;;;;;5076473;28;20677;-92
2021/10/22 03:12:41;;;;;;;3.83;1.97;;;7.20;99.90;;;;;;5084934;28;20622;-92
2021/10/22 03:15:10;;;;;;;6.33;2.30;;;7.10;99.90;;;;;;5089674;28;21694;-93
2021/10/22 03:17:38;;;;;;;5.70;2.23;;;7.10;99.90;;;;;;5090479;28;20664;-92
2021/10/22 03:20:06;;;;;;;6.17;2.67;;;7.00;99.90;;;;;;5089534;28;20736;-94
2021/10/22 03:22:35;;;;;;;6.30;2.30;;;7.00;99.90;;;;;;5087754;28;20719;-92
2021/10/22 03:25:02;;;;;;;10.47;2.63;;;7.00;99.90;;;;;;5090400;28;20659;-93
2021/10/22 03:27:30;;;;;;;4.40;2.37;;;6.80;99.90;;;;;;5088978;28;20627;-93
2021/10/22 03:29:57;;;;;;;9.90;2.43;;;6.70;99.90;;;;;;5081057;28;20641;-93
2021/10/22 03:32:24;;;;;;;4.40;2.40;;;6.60;99.90;;;;;;5089674;28;21188;-93
2021/10/22 03:34:51;;;;;;;6.30;2.20;;;6.60;99.90;;;;;;5083234;28;20615;-93
2021/10/22 03:37:18;;;;;;;5.83;2.43;;;6.70;99.90;;;;;;5087319;28;20631;-94
2021/10/22 03:39:47;;;;;;;5.13;2.40;;;6.70;99.90;;;;;;5086406;28;20670;-92
2021/10/22 03:42:14;;;;;;;6.33;2.70;;;6.60;99.90;;;;;;5083426;28;20636;-92
2021/10/22 03:44:41;;;;;;;7.33;2.10;;;6.50;99.90;;;;;;5088770;28;20638;-93
2021/10/22 03:47:08;;;;;;;4.80;2.20;;;6.40;99.90;;;;;;5085333;28;21244;-94
2021/10/22 03:49:42;;;;;;;8.07;2.70;;;6.30;99.90;;;;;;5088207;28;20940;-93
2021/10/22 03:52:09;;;;;;;4.37;2.40;;;6.30;99.90;;;;;;5090025;28;20674;-93
2021/10/22 03:54:36;;;;;;;5.53;2.50;;;6.10;99.90;;;;;;5081710;28;21167;-94
2021/10/22 03:57:05;;;;;;;9.00;3.97;;;6.10;99.90;;;;;;5087723;28;20623;-93
2021/10/22 03:59:32;;;;;;;4.77;2.43;;;5.90;99.90;;;;;;5087202;28;20981;-94
2021/10/22 04:01:59;;;;;;;5.93;2.80;;;5.90;99.90;;;;;;5088128;28;20727;-92
2021/10/22 04:04:29;;;;;;;5.10;1.97;;;5.90;99.90;;;;;;5086481;28;20689;-91
2021/10/22 04:07:00;;;;;;;10.37;2.80;;;5.80;99.90;;;;;;5086687;28;20809;-91
2021/10/22 04:09:31;;;;;;;7.97;2.60;;;5.70;99.90;;;;;;5089402;28;21087;-93
2021/10/22 04:11:59;;;;;;;9.13;2.60;;;5.70;99.90;;;;;;5086760;28;20655;-93
2021/10/22 04:14:27;;;;;;;5.60;2.70;;;5.70;99.90;;;;;;5083240;28;20628;-92
2021/10/22 04:16:56;;;;;;;5.10;2.87;;;5.60;99.90;;;;;;5080596;28;20644;-93
2021/10/22 04:19:24;;;;;;;6.63;2.20;;;5.50;99.90;;;;;;5089123;28;20659;-92
2021/10/22 04:21:52;;;;;;;9.10;2.70;;;5.50;99.90;;;;;;5088847;28;20981;-96
2021/10/22 04:24:19;;;;;;;4.53;2.80;;;5.50;99.90;;;;;;5092465;28;20639;-93
2021/10/22 04:26:47;;;;;;;5.63;2.50;;;5.40;99.90;;;;;;5092252;28;20652;-94
2021/10/22 04:29:14;;;;;;;7.43;2.67;;;5.30;99.90;;;;;;5086646;28;20653;-94
2021/10/22 04:31:43;;;;;;;9.53;2.70;;;5.30;99.90;;;;;;5086602;28;20641;-92
2021/10/22 04:34:10;;;;;;;4.20;2.90;;;5.30;99.90;;;;;;5079441;28;20977;-93
2021/10/22 04:36:38;;;;;;;3.80;2.30;;;5.20;99.90;;;;;;5086281;28;20658;-91
2021/10/22 04:41:53;;;;;;;9.03;3.27;;;4.90;99.90;;;;;;5085820;28;21145;-91
2021/10/22 04:44:20;;;;;;;6.20;2.60;;;4.90;99.90;;;;;;5084002;28;21124;-92
2021/10/22 04:46:48;;;;;;;15.37;3.90;;;4.80;99.90;;;;;;5084802;28;20660;-91
2021/10/22 04:49:16;;;;;;;9.37;3.33;;;4.80;99.90;;;;;;5086409;28;20660;-92
2021/10/22 04:51:44;;;;;;;12.70;3.10;;;4.80;99.90;;;;;;5088184;28;20623;-91
2021/10/22 04:54:12;;;;;;;6.73;2.80;;;4.80;99.90;;;;;;5088549;28;20638;-93
2021/10/22 04:56:41;;;;;;;11.63;3.93;;;4.90;99.90;;;;;;5066649;28;20612;-93
2021/10/22 04:59:08;;;;;;;7.80;2.80;;;4.80;99.90;;;;;;5066895;28;20664;-92
2021/10/22 05:01:35;;;;;;;6.27;2.90;;;4.80;99.90;;;;;;5084104;28;20632;-92
2021/10/22 05:04:04;;;;;;;7.17;3.00;;;4.80;99.90;;;;;;5087013;28;20636;-93
2021/10/22 05:06:31;;;;;;;7.57;3.10;;;4.70;99.90;;;;;;5083737;28;20653;-93
2021/10/22 05:08:57;;;;;;;7.80;2.80;;;4.70;99.90;;;;;;5080060;28;20717;-92
2021/10/22 05:11:25;;;;;;;6.30;3.40;;;4.70;99.90;;;;;;5085122;28;20645;-93
2021/10/22 05:13:52;;;;;;;7.73;3.00;;;4.70;99.90;;;;;;5092053;28;20640;-92
2021/10/22 05:16:20;;;;;;;8.00;2.90;;;4.60;99.90;;;;;;5092649;28;20624;-92
2021/10/22 05:18:47;;;;;;;7.90;3.70;;;4.70;99.90;;;;;;5095389;28;20616;-93
2021/10/22 05:21:16;;;;;;;9.67;3.93;;;4.60;99.90;;;;;;5091322;28;20626;-92
2021/10/22 05:23:44;;;;;;;7.87;3.70;;;4.70;99.90;;;;;;5084261;28;20627;-91
2021/10/22 05:26:12;;;;;;;10.17;3.63;;;4.50;99.90;;;;;;5091666;28;20658;-91
2021/10/22 05:28:39;;;;;;;11.07;4.00;;;4.60;99.90;;;;;;5086049;28;20663;-92
2021/10/22 05:31:12;;;;;;;11.63;3.60;;;4.60;99.90;;;;;;5088863;28;20624;-90
2021/10/22 05:33:39;;;;;;;7.63;3.80;;;4.60;99.90;;;;;;5088653;28;21345;-91
2021/10/22 05:36:08;;;;;;;8.80;3.43;;;4.60;99.90;;;;;;5065713;28;20616;-92
2021/10/22 05:38:43;;;;;;;11.03;3.63;;;4.50;99.90;;;;;;5079570;28;21209;-93
2021/10/22 05:41:10;;;;;;;6.47;3.07;;;4.50;99.90;;;;;;5089391;28;20936;-92
2021/10/22 05:43:37;;;;;;;10.07;3.53;;;4.50;99.90;;;;;;5087170;28;20640;-93
2021/10/22 05:46:04;;;;;;;4.60;3.03;;;4.50;99.90;;;;;;5067412;28;20665;-94
2021/10/22 05:48:31;;;;;;;7.97;3.47;;;4.40;99.90;;;;;;5082591;28;20652;-93
2021/10/22 05:51:00;;;;;;;8.23;3.33;;;4.40;99.90;;;;;;5084492;28;20624;-92
2021/10/22 05:53:30;;;;;;;11.67;4.63;;;4.40;99.90;;;;;;5078189;28;20671;-94
2021/10/22 05:56:00;;;;;;;9.67;4.20;;;4.40;99.90;;;;;;5080572;28;21220;-92
2021/10/22 05:58:33;;;;;;;13.57;4.60;;;4.40;99.90;;;;;;5083425;28;20630;-93
2021/10/22 06:01:15;;;;;;;9.00;4.50;;;4.30;99.90;;;;;;5085131;28;21119;-92
2021/10/22 06:03:46;;;;;;;10.33;4.53;;;4.20;99.90;;;;;;5079884;28;20643;-93
2021/10/22 06:06:14;;;;;;;9.43;4.27;;;4.30;99.90;;;;;;5079403;28;20663;-91
2021/10/22 06:08:41;;;;;;;8.60;4.60;;;4.30;99.90;;;;;;5083211;28;20619;-91
2021/10/22 06:11:14;;;;;;;14.07;5.13;;;4.30;99.90;;;;;;5064245;28;20625;-91
2021/10/22 06:13:43;;;;;;;8.80;5.50;;;4.30;99.90;;;;;;5094945;28;21157;-92
2021/10/22 06:16:14;;;;;;;11.27;5.90;;;4.40;99.90;;;;;;5083222;28;21126;-93
2021/10/22 06:18:48;;;;;;;10.90;5.57;;;4.40;99.90;;;;;;5088334;28;20648;-93
2021/10/22 06:21:23;;;;;;;10.83;5.43;;;4.40;99.90;;;;;;5093254;28;21178;-93
2021/10/22 06:24:00;;;;;;;11.07;5.77;;;4.40;99.90;;;;;;5094672;28;20628;-93
2021/10/22 06:26:32;;;;;;;6.93;5.27;;;4.40;99.90;;;;;;5084503;28;20653;-92
2021/10/22 06:29:00;;;;;;;6.93;5.00;;;4.40;99.90;;;;;;5103236;28;21237;-93
2021/10/22 06:31:27;;;;;;;8.23;4.90;;;4.50;99.90;;;;;;5098986;28;20631;-94
2021/10/22 06:33:57;;;;;;;12.93;5.87;;;4.50;99.90;;;;;;5096778;28;20631;-92
2021/10/22 06:36:29;;;;;;;8.83;4.57;;;4.50;99.90;;;;;;5091492;28;20642;-95
2021/10/22 06:38:59;;;;;;;11.10;5.33;;;4.70;99.90;;;;;;5070575;28;20703;-94
2021/10/22 06:41:26;;;;;;;9.30;5.83;;;4.80;99.90;;;;;;5084574;28;20632;-94
2021/10/22 06:43:56;;;;;;;5.80;4.97;;;4.70;99.90;;;;;;5078862;28;20632;-94
2021/10/22 06:46:25;;;;;;;5.93;5.07;;;4.70;99.90;;;;;;5089299;28;20688;-93
2021/10/22 06:48:54;;;;;;;9.50;5.53;;;4.80;99.90;;;;;;5084043;28;20663;-94
2021/10/22 06:51:23;;;;;;;10.77;5.80;;;4.90;99.90;;;;;;5082334;28;20712;-92
2021/10/22 06:53:50;;;;;;;11.43;6.40;;;5.00;99.90;;;;;;5086493;28;21048;-94
2021/10/22 06:56:20;;;;;;;10.60;5.97;;;5.10;99.90;;;;;;5089663;28;20632;-93
2021/10/22 06:58:47;;;;;;;9.20;6.10;;;5.20;99.90;;;;;;5082329;28;20728;-91
2021/10/22 07:01:15;;;;;;;13.90;5.97;;;5.30;99.90;;;;;;5086056;28;20625;-90
2021/10/22 07:03:43;;;;;;;10.90;5.97;;;5.60;99.90;;;;;;5089797;28;21171;-91
2021/10/22 07:08:57;;;;;;;12.37;6.03;;;5.70;99.90;;;;;;5084811;28;20696;-89
2021/10/22 07:11:25;;;;;;;10.03;5.30;;;5.80;99.90;;;;;;5068429;28;20648;-91
2021/10/22 07:13:54;;;;;;;11.23;6.33;;;5.90;99.90;;;;;;5087859;28;20624;-91
2021/10/22 07:16:26;;;;;;;11.00;6.37;;;5.90;99.90;;;;;;5091274;28;20633;-91
2021/10/22 07:18:53;;;;;;;14.27;6.50;;;6.00;99.90;;;;;;5083692;28;21044;-91
2021/10/22 07:21:21;;;;;;;9.40;6.30;;;6.10;99.90;;;;;;5083282;28;20684;-91
2021/10/22 07:23:50;;;;;;;14.30;6.50;;;6.30;99.90;;;;;;5082650;28;21025;-91
2021/10/22 07:26:19;;;;;;;11.90;5.57;;;6.40;99.90;;;;;;5082460;28;20638;-91
2021/10/22 07:28:46;;;;;;;9.87;5.37;;;6.60;99.90;;;;;;5067577;28;20663;-90
2021/10/22 07:31:15;;;;;;;11.10;5.10;;;6.80;99.90;;;;;;5084055;28;20651;-91
2021/10/22 07:33:45;;;;;;;10.20;5.67;;;6.90;99.90;;;;;;5085019;28;20611;-92
2021/10/22 07:36:15;;;;;;;10.73;6.03;;;7.10;99.90;;;;;;5086757;28;20650;-91
2021/10/22 07:38:45;;;;;;;12.53;6.10;;;7.30;99.90;;;;;;5081910;28;20647;-91
2021/10/22 07:41:14;;;;;;;14.57;7.40;;;7.50;99.90;;;;;;5090473;28;21128;-94
2021/10/22 07:43:41;;;;;;;15.23;6.10;;;7.70;99.90;;;;;;5083932;28;21232;-94
2021/10/22 07:46:14;;;;;;;10.03;4.73;;;7.80;99.90;;;;;;5084080;28;21231;-94
2021/10/22 07:48:44;;;;;;;12.83;4.23;;;8.00;99.90;;;;;;5085337;28;20633;-93
2021/10/22 07:51:12;;;;;;;13.63;4.97;;;8.20;99.90;;;;;;5085172;28;20692;-92
2021/10/22 07:53:39;;;;;;;14.40;5.17;;;8.30;99.90;;;;;;5087285;28;20641;-93
2021/10/22 07:56:09;;;;;;;13.13;4.90;;;8.50;99.90;;;;;;5084773;28;20656;-92
2021/10/22 07:58:38;;;;;;;11.57;4.53;;;8.60;99.90;;;;;;5089557;28;20641;-91
2021/10/22 08:01:09;;;;;;;10.27;5.07;;;8.80;99.90;;;;;;5089907;28;20621;-92
2021/10/22 08:03:36;;;;;;;11.30;4.43;;;8.90;99.90;;;;;;5079076;28;20632;-92
2021/10/22 08:06:05;;;;;;;11.97;3.70;;;9.10;99.90;;;;;;5081667;28;20671;-92
2021/10/22 08:08:34;;;;;;;13.17;4.27;;;9.10;99.90;;;;;;5082468;28;20660;-91
2021/10/22 08:11:07;;;;;;;10.30;4.07;;;9.20;99.90;;;;;;5082278;28;20645;-92
2021/10/22 08:13:35;;;;;;;9.47;3.83;;;9.40;99.90;;;;;;5068527;28;20976;-92
2021/10/22 08:16:03;;;;;;;8.00;3.47;;;9.60;99.90;;;;;;5061960;28;20649;-93
2021/10/22 08:18:31;;;;;;;14.33;4.17;;;9.50;99.90;;;;;;5085014;28;21185;-93
2021/10/22 08:21:00;;;;;;;7.87;3.90;;;9.50;99.90;;;;;;5050942;28;20617;-93
2021/10/22 08:23:31;;;;;;;8.90;3.37;;;9.50;99.90;;;;;;5081984;28;21301;-93
2021/10/22 08:25:59;;;;;;;10.40;3.60;;;9.70;99.90;;;;;;5060842;28;20624;-93
2021/10/22 08:28:26;;;;;;;10.53;3.93;;;9.90;99.90;;;;;;5081516;28;21075;-92
2021/10/22 08:30:56;;;;;;;8.33;3.33;;;9.90;99.90;;;;;;5080320;28;20620;-93
2021/10/22 08:33:25;;;;;;;13.47;3.07;;;10.10;99.90;;;;;;5075038;28;20624;-93
2021/10/22 08:35:52;;;;;;;7.27;2.83;;;10.20;99.90;;;;;;5080779;28;20620;-92
2021/10/22 08:38:19;;;;;;;12.27;3.40;;;10.20;99.90;;;;;;5082032;28;20758;-92
2021/10/22 08:40:48;;;;;;;9.20;3.00;;;10.20;99.90;;;;;;5062703;28;20688;-93
2021/10/22 08:43:15;;;;;;;9.77;3.03;;;10.10;99.90;;;;;;5082110;28;20982;-92
2021/10/22 08:45:43;;;;;;;10.00;3.10;;;10.20;99.90;;;;;;5064893;28;21151;-93
2021/10/22 08:48:13;;;;;;;8.50;2.80;;;10.20;99.90;;;;;;5084374;28;20673;-93
2021/10/22 08:50:43;;;;;;;9.20;3.10;;;10.00;99.90;;;;;;5089355;28;20689;-93
2021/10/22 08:53:13;;;;;;;11.10;2.97;;;10.20;99.90;;;;;;5081897;28;20637;-93
2021/10/22 08:55:40;;;;;;;9.70;2.87;;;10.00;99.90;;;;;;5087060;28;21162;-93
2021/10/22 08:58:09;;;;;;;11.73;3.70;;;10.20;99.90;;;;;;5086441;28;20660;-94
2021/10/22 09:06:17;;;;;;;13.07;4.00;;;10.10;99.90;;;;;;5092995;28;20946;-93
2021/10/22 09:08:56;;;;;;;6.13;2.50;;;10.00;99.90;;;;;;5084447;28;20677;-91
2021/10/22 09:11:27;;;;;;;7.67;2.90;;;10.20;99.90;;;;;;5081137;28;21241;-95
2021/10/22 09:14:06;;;;;;;13.03;3.37;;;10.50;99.90;;;;;;5080726;28;20751;-91
2021/10/22 09:16:42;;;;;;;12.07;3.07;;;10.20;99.90;;;;;;5083170;28;20632;-91
2021/10/22 09:19:12;;;;;;;8.67;2.87;;;10.40;99.90;;;;;;5087769;28;20666;-91
2021/10/22 09:21:39;;;;;;;8.37;3.27;;;10.80;99.90;;;;;;5093285;28;20652;-93
2021/10/22 09:24:26;;;;;;;9.20;3.40;;;11.00;99.90;;;;;;5075330;28;20620;-93
2021/10/22 09:26:56;;;;;;;15.53;3.20;;;11.00;99.90;;;;;;5082167;28;20655;-93
2021/10/22 09:29:32;;;;;;;8.20;3.10;;;10.80;99.90;;;;;;5083111;28;20655;-93
2021/10/22 09:32:00;;;;;;;9.70;3.23;;;11.30;99.90;;;;;;5093452;28;20644;-93
2021/10/22 09:34:34;;;;;;;11.87;3.10;;;11.10;99.90;;;;;;5087769;28;21045;-94
2021/10/22 09:37:12;;;;;;;10.73;3.30;;;11.40;99.90;;;;;;5093575;28;20620;-93
2021/10/22 09:39:43;;;;;;;6.57;2.60;;;11.40;99.90;;;;;;5087672;28;20654;-93
2021/10/22 09:42:13;;;;;;;6.20;2.30;;;11.50;99.90;;;;;;5090807;28;20636;-93
2021/10/22 09:44:45;;;;;;;8.83;2.70;;;11.50;99.90;;;;;;5093755;28;20705;-94
2021/10/22 09:47:14;;;;;;;7.73;2.80;;;11.50;99.90;;;;;;5091550;28;20678;-95
2021/10/22 09:49:44;;;;;;;8.73;2.93;;;11.80;99.90;;;;;;5088806;28;20661;-94
2021/10/22 09:52:20;;;;;;;11.93;3.33;;;12.20;99.90;;;;;;5087805;28;20653;-93
2021/10/22 09:54:48;;;;;;;8.43;2.90;;;12.10;99.90;;;;;;5085582;28;20719;-93
2021/10/22 09:57:17;;;;;;;5.70;2.50;;;11.90;99.90;;;;;;5082696;28;20731;-94
2021/10/22 09:59:46;;;;;;;6.07;1.70;;;11.90;99.90;;;;;;5079142;28;20644;-93
2021/10/22 10:02:13;;;;;;;9.43;2.40;;;12.10;99.90;;;;;;5080424;28;20647;-94
2021/10/22 10:04:45;;;;;;;9.50;2.50;;;12.00;99.90;;;;;;5087143;28;20635;-93
2021/10/22 10:07:14;;;;;;;5.77;2.67;;;12.30;99.90;;;;;;5081881;28;20682;-93
2021/10/22 10:09:42;;;;;;;7.07;2.70;;;12.80;99.10;;;;;;5063438;28;20651;-94
2021/10/22 10:12:09;;;;;;;5.97;2.40;;;13.00;99.90;;;;;;5068798;28;20632;-94
2021/10/22 10:14:36;;;;;;;8.30;2.53;;;13.00;98.00;;;;;;5088140;28;20628;-93
2021/10/22 10:17:05;;;;;;;7.20;2.30;;;13.00;97.90;;;;;;5084472;28;20667;-94
2021/10/22 10:19:35;;;;;;;5.97;2.50;;;13.10;96.80;;;;;;5093603;28;20670;-92
2021/10/22 10:22:11;;;;;;;5.23;2.20;;;13.10;98.10;;;;;;5076485;28;20634;-94
2021/10/22 10:25:28;;;;;;;7.20;2.00;;;13.10;95.60;;;;;;5089986;28;20636;-93
2021/10/22 10:28:12;;;;;;;5.67;1.90;;;12.80;91.70;;;;;;5094798;28;20683;-94
2021/10/22 10:30:51;;;;;;;15.00;2.30;;;12.30;91.90;;;;;;5098777;28;20628;-94
2021/10/22 10:34:04;;;;;;;4.80;2.00;;;12.40;90.60;;;;;;5094479;28;20641;-94
2021/10/22 10:37:02;;;;;;;4.40;1.47;;;12.90;90.40;;;;;;5090150;28;20628;-95
2021/10/22 10:40:18;;;;;;;4.40;1.80;;;13.20;88.10;;;;;;5095011;28;20652;-94
2021/10/22 10:46:50;;;;;;;4.40;1.73;;;12.90;78.30;;;;;;5095668;28;20672;-94
2021/10/22 10:49:49;;;;;;;5.57;2.00;;;13.10;80.20;;;;;;5089312;28;20671;-95
2021/10/22 10:53:03;;;;;;;5.70;2.37;;;13.70;81.00;;;;;;5085480;28;20653;-95
2021/10/22 10:55:34;;;;;;;2.70;1.83;;;14.10;82.20;;;;;;5079900;28;20690;-95
2021/10/22 10:58:15;;;;;;;5.50;1.63;;;14.00;80.20;;;;;;5080285;28;20652;-96
2021/10/22 11:00:46;;;;;;;2.27;1.60;;;14.40;79.70;;;;;;5081394;28;20672;-95
2021/10/22 11:03:54;;;;;;;5.37;1.10;;;13.80;77.90;;;;;;5085608;28;21152;-94
2021/10/22 11:09:57;;;;;;;4.57;1.50;;;13.80;72.70;;;;;;5088030;28;20655;-96
2021/10/22 11:12:30;;;;;;;3.53;1.37;;;14.10;71.30;;;;;;5080796;28;20652;-95
2021/10/22 11:15:07;;;;;;;2.80;1.40;;;14.10;72.10;;;;;;5091243;28;20631;-96
2021/10/22 11:21:05;;;;;;;2.53;1.30;;;14.40;69.00;;;;;;5090020;28;20768;-95
2021/10/22 11:23:38;;;;;;;3.90;1.30;;;15.20;71.50;;;;;;5089877;28;21170;-95
2021/10/22 11:26:07;;;;;;;3.60;1.20;;;15.10;65.90;;;;;;5087521;28;20620;-95
2021/10/22 11:28:45;;;;;;;3.33;1.30;;;14.90;62.90;;;;;;5087369;28;20663;-95
2021/10/22 11:37:30;;;;;;;2.93;1.17;;;14.90;66.00;;;;;;5062120;28;20617;-94
2021/10/22 11:44:31;;;;;;;5.83;1.67;;;14.80;64.00;;;;;;5080892;28;20727;-94
2021/10/22 11:57:00;;;;;;;2.50;0.87;;;16.00;57.80;;;;;;4926625;28;20634;-95
2021/10/22 11:59:30;;;;;;;3.77;0.87;;;15.40;57.80;;;;;;5019817;28;21188;-93
2021/10/22 12:02:06;;;;;;;3.23;1.30;;;15.50;57.00;;;;;;5090819;28;20687;-96
2021/10/22 12:04:46;;;;;;;3.97;1.20;;;15.90;55.10;;;;;;5088511;28;20761;-95
2021/10/22 12:07:13;;;;;;;3.13;0.90;;;16.20;56.10;;;;;;5091707;28;21288;-94
2021/10/22 12:09:42;;;;;;;2.63;1.47;;;16.20;54.80;;;;;;5083057;28;20711;-95
2021/10/22 12:12:56;;;;;;;2.57;1.27;;;16.10;53.00;;;;;;5086874;28;20629;-95
2021/10/22 12:15:29;;;;;;;2.13;1.07;;;16.50;53.20;;;;;;5082061;28;20660;-95
2021/10/22 12:21:41;;;;;;;;;;;;;;;;;;;;;
2021/10/22 12:24:58;;;;;;;2.73;1.10;;;16.80;53.60;;;;;;5393502;22;20692;-95
2021/10/22 12:27:57;;;;;;;2.10;0.60;;;17.70;52.60;;;;;;5079669;28;20636;-95
2021/10/22 12:31:00;;;;;;;2.23;1.17;;;17.20;51.20;;;;;;5080315;28;20609;-95
2021/10/22 12:34:26;;;;;;;2.47;1.10;;;16.90;51.50;;;;;;5066830;28;20761;-96
2021/10/22 13:08:34;;;;;;;6.73;1.23;;;18.00;49.50;;;;;;5092916;28;20561;-96
2021/10/22 13:14:26;;;;;;;3.43;1.17;;;17.70;48.70;;;;;;5020767;28;20625;-90
2021/10/22 13:23:28;;;;;;;1.77;0.80;;;18.20;50.20;;;;;;5058069;28;20613;-92
2021/10/22 13:25:55;;;;;;;3.87;0.90;;;18.70;50.30;;;;;;5034898;28;20680;-92
2021/10/22 13:28:27;;;;;;;2.43;0.90;;;17.60;50.00;;;;;;5048328;28;20680;-90
2021/10/22 13:31:03;;;;;;;3.73;1.53;;;17.10;51.20;;;;;;5046989;28;20650;-90
2021/10/22 13:33:31;;;;;;;4.20;1.03;;;17.30;52.20;;;;;;5044533;28;20988;-91
2021/10/22 13:35:59;;;;;;;2.27;1.20;;;17.40;52.40;;;;;;5044951;28;20755;-91
2021/10/22 13:38:26;;;;;;;2.03;1.10;;;17.90;51.80;;;;;;5047633;28;21582;-91
2021/10/22 13:40:52;;;;;;;3.87;1.20;;;17.70;52.80;;;;;;5046225;28;20883;-91
2021/10/22 13:43:19;;;;;;;6.60;1.10;;;18.00;53.00;;;;;;5038802;28;20718;-92
2021/10/22 13:45:49;;;;;;;3.57;1.37;;;18.40;53.30;;;;;;5031235;28;20717;-92
2021/10/22 13:48:20;;;;;;;4.03;1.63;;;18.60;53.30;;;;;;5038703;28;20655;-91
2021/10/22 13:50:48;;;;;;;3.57;1.37;;;18.30;53.40;;;;;;5039502;28;20648;-92
2021/10/22 13:53:21;;;;;;;2.17;1.07;;;17.90;53.90;;;;;;5038647;28;20706;-92
2021/10/22 13:55:48;;;;;;;3.70;1.20;;;17.80;53.80;;;;;;5046188;28;20642;-92
2021/10/22 13:58:15;;;;;;;5.27;1.60;;;16.90;53.80;;;;;;5045356;28;20721;-92
2021/10/22 14:00:42;;;;;;;3.63;1.50;;;17.80;53.30;;;;;;5038650;28;20646;-92
2021/10/22 14:03:11;;;;;;;3.07;1.40;;;18.20;52.90;;;;;;5042768;28;21339;-91
2021/10/22 14:05:38;;;;;;;6.47;2.33;;;18.10;52.60;;;;;;5047081;28;20630;-91
2021/10/22 14:08:07;;;;;;;3.80;1.50;;;17.90;52.50;;;;;;5043539;28;20622;-92
2021/10/22 14:10:36;;;;;;;3.07;1.30;;;18.10;53.50;;;;;;5046575;28;21128;-92
2021/10/22 14:13:11;;;;;;;3.40;1.00;;;18.40;53.80;;;;;;5037543;28;20669;-91
2021/10/22 14:18:38;;;;;;;2.40;0.97;;;17.70;53.80;;;;;;5034449;28;21079;-91
2021/10/22 14:24:12;;;;;;;2.60;1.10;;;16.80;54.20;;;;;;5047147;28;20625;-91
2021/10/22 14:29:24;;;;;;;4.40;1.53;;;16.20;56.90;;;;;;5055160;28;20665;-90
2021/10/22 14:31:53;;;;;;;4.07;1.70;;;16.40;57.00;;;;;;5052595;28;20626;-91
2021/10/22 14:34:22;;;;;;;5.47;1.50;;;15.50;57.50;;;;;;5049524;28;20634;-91
2021/10/22 14:36:51;;;;;;;3.10;1.70;;;15.30;59.30;;;;;;5047440;28;21249;-92
2021/10/22 14:39:24;;;;;;;7.00;2.03;;;15.20;61.20;;;;;;5044674;28;20654;-90
2021/10/22 14:41:52;;;;;;;2.20;1.50;;;14.40;61.80;;;;;;5042431;28;20630;-92
2021/10/22 14:44:22;;;;;;;3.90;1.70;;;15.70;61.50;;;;;;5047102;28;20997;-92
2021/10/22 14:46:54;;;;;;;2.47;1.30;;;16.70;58.90;;;;;;5048007;28;20638;-91
2021/10/22 14:49:24;;;;;;;6.20;1.70;;;16.20;58.40;;;;;;5047557;28;21019;-91
2021/10/22 14:54:40;;;;;;;3.50;1.57;;;16.40;59.30;;;;;;5049880;28;20636;-91